createdAt,value
2019-05-07T00:00:37.884Z,102188.53
2019-05-07T00:02:40.054Z,102188.27
2019-05-07T00:04:42.939Z,102191.83
2019-05-07T00:06:45.526Z,102189.89
2019-05-07T00:08:47.127Z,102185.53
2019-05-07T00:10:52.812Z,102188.27
2019-05-07T00:12:54.567Z,102188.81
2019-05-07T00:15:02.267Z,102176.45
2019-05-07T00:17:04.614Z,102176.45
2019-05-07T00:19:07.031Z,102184.41
2019-05-07T00:21:09.062Z,102180.04
2019-05-07T00:23:12.417Z,102187.17
2019-05-07T00:25:14.605Z,102178.67
2019-05-07T00:27:16.728Z,102179.76
2019-05-07T00:29:19.258Z,102180.05
2019-05-07T00:31:23.082Z,102182.77
2019-05-07T00:33:39.222Z,102187.44
2019-05-07T00:36:05.303Z,102177.02
2019-05-07T00:38:09.738Z,102187.71
2019-05-07T00:40:37.461Z,102182.78
2019-05-07T00:42:57.847Z,102183.06
2019-05-07T00:45:17.907Z,102177.86
2019-05-07T00:47:14.799Z,102184.70
2019-05-07T00:49:17.761Z,102184.97
2019-05-07T00:51:29.279Z,102184.43
2019-05-07T00:53:32.919Z,102182.23
2019-05-07T00:55:35.520Z,102182.49
2019-05-07T00:57:37.175Z,102178.92
2019-05-07T00:59:40.417Z,102177.84
2019-05-07T01:01:44.505Z,102179.48
2019-05-07T01:03:46.582Z,102174.55
2019-05-07T01:05:49.041Z,102171.80
2019-05-07T01:07:52.933Z,102176.19
2019-05-07T01:09:54.803Z,102174.02
2019-05-07T01:11:56.835Z,102173.19
2019-05-07T01:13:59.331Z,102169.34
2019-05-07T01:16:02.500Z,102171.28
2019-05-07T01:18:05.730Z,102169.63
2019-05-07T01:20:08.391Z,102170.45
2019-05-07T01:22:12.481Z,102169.09
2019-05-07T01:24:14.440Z,102174.28
2019-05-07T01:26:16.292Z,102173.45
2019-05-07T01:28:18.304Z,102166.31
2019-05-07T01:30:20.342Z,102162.50
2019-05-07T01:32:45.238Z,102170.16
2019-05-07T01:34:52.847Z,102166.33
2019-05-07T01:36:57.866Z,102165.77
2019-05-07T01:39:00.020Z,102168.52
2019-05-07T01:41:02.851Z,102165.22
2019-05-07T01:43:05.180Z,102165.20
2019-05-07T01:45:09.174Z,102163.83
2019-05-07T01:47:13.020Z,102167.12
2019-05-07T01:49:15.258Z,102169.88
2019-05-07T01:51:17.605Z,102162.73
2019-05-07T01:53:22.737Z,102163.02
2019-05-07T01:55:24.881Z,102162.19
2019-05-07T01:57:27.684Z,102159.99
2019-05-07T01:59:31.974Z,102157.81
2019-05-07T02:01:35.913Z,102158.91
2019-05-07T02:03:57.838Z,102155.63
2019-05-07T02:06:09.505Z,102159.20
2019-05-07T02:08:16.123Z,102159.20
2019-05-07T02:10:38.133Z,102159.18
2019-05-07T02:12:42.415Z,102154.80
2019-05-07T02:14:44.449Z,102154.52
2019-05-07T02:16:48.101Z,102153.70
2019-05-07T02:18:50.190Z,102153.16
2019-05-07T02:20:52.404Z,102155.08
2019-05-07T02:22:54.700Z,102155.34
2019-05-07T02:24:56.761Z,102158.92
2019-05-07T02:26:58.758Z,102151.25
2019-05-07T02:29:02.711Z,102151.25
2019-05-07T02:31:06.168Z,102151.52
2019-05-07T02:33:08.318Z,102143.00
2019-05-07T02:35:13.488Z,102144.09
2019-05-07T02:37:18.781Z,102147.41
2019-05-07T02:39:27.719Z,102144.64
2019-05-07T02:41:33.350Z,102143.54
2019-05-07T02:43:36.313Z,102145.48
2019-05-07T02:46:15.226Z,102143.00
2019-05-07T02:48:03.448Z,102134.80
2019-05-07T02:50:14.053Z,102136.72
2019-05-07T02:52:38.754Z,102134.80
2019-05-07T02:55:03.995Z,102131.23
2019-05-07T02:57:05.958Z,102131.23
2019-05-07T02:59:08.143Z,102130.69
2019-05-07T03:01:13.425Z,102131.51
2019-05-07T03:03:14.354Z,102130.41
2019-05-07T03:05:16.573Z,102131.52
2019-05-07T03:07:19.062Z,102128.50
2019-05-07T03:09:22.749Z,102128.23
2019-05-07T03:11:24.634Z,102127.69
2019-05-07T03:13:26.921Z,102133.16
2019-05-07T03:15:33.179Z,102123.29
2019-05-07T03:17:34.436Z,102127.95
2019-05-07T03:19:38.619Z,102129.05
2019-05-07T03:21:54.014Z,102129.88
2019-05-07T03:24:30.056Z,102125.22
2019-05-07T03:26:38.534Z,102126.86
2019-05-07T03:28:53.637Z,102121.90
2019-05-07T03:31:06.562Z,102112.84
2019-05-07T03:33:27.976Z,102120.53
2019-05-07T03:35:46.236Z,102114.74
2019-05-07T03:37:45.707Z,102109.56
2019-05-07T03:39:47.795Z,102113.67
2019-05-07T03:41:49.815Z,102109.80
2019-05-07T03:43:52.888Z,102105.42
2019-05-07T03:46:14.173Z,102106.52
2019-05-07T03:48:18.289Z,102107.08
2019-05-07T03:50:23.334Z,102104.62
2019-05-07T03:52:25.326Z,102098.31
2019-05-07T03:54:27.327Z,102099.66
2019-05-07T03:56:32.896Z,102097.73
2019-05-07T03:58:34.450Z,102094.74
2019-05-07T04:00:36.498Z,102097.73
2019-05-07T04:02:39.405Z,102096.66
2019-05-07T04:04:43.317Z,102094.47
2019-05-07T04:06:45.670Z,102101.58
2019-05-07T04:08:47.916Z,102091.71
2019-05-07T04:10:53.470Z,102094.45
2019-05-07T04:12:54.180Z,102090.34
2019-05-07T04:14:56.227Z,102093.64
2019-05-07T04:17:13.277Z,102090.89
2019-05-07T04:19:03.918Z,102091.98
2019-05-07T04:21:06.157Z,102088.69
2019-05-07T04:23:08.363Z,102092.79
2019-05-07T04:25:35.853Z,102084.59
2019-05-07T04:27:47.959Z,102085.13
2019-05-07T04:29:53.245Z,102080.17
2019-05-07T04:31:54.515Z,102077.44
2019-05-07T04:33:59.565Z,102077.70
2019-05-07T04:36:24.528Z,102081.27
2019-05-07T04:38:26.535Z,102079.08
2019-05-07T04:40:28.705Z,102065.84
2019-05-07T04:42:33.332Z,102062.55
2019-05-07T04:44:34.953Z,102064.75
2019-05-07T04:46:37.010Z,102061.45
2019-05-07T04:48:39.357Z,102060.91
2019-05-07T04:50:47.233Z,102063.08
2019-05-07T04:52:46.451Z,102058.96
2019-05-07T04:54:48.615Z,102057.59
2019-05-07T04:56:53.191Z,102051.81
2019-05-07T04:58:54.737Z,102055.64
2019-05-07T05:00:57.016Z,102057.05
2019-05-07T05:03:09.278Z,102056.75
2019-05-07T05:05:12.939Z,102056.41
2019-05-07T05:07:15.215Z,102055.28
2019-05-07T05:09:17.427Z,102060.16
2019-05-07T05:11:20.343Z,102063.47
2019-05-07T05:13:23.735Z,102057.42
2019-05-07T05:15:26.022Z,102057.36
2019-05-07T05:17:28.043Z,102060.11
2019-05-07T05:19:32.289Z,102056.72
2019-05-07T05:21:57.114Z,102057.55
2019-05-07T05:24:02.827Z,102058.34
2019-05-07T05:26:05.008Z,102060.25
2019-05-07T05:28:07.333Z,102058.30
2019-05-07T05:30:12.477Z,102051.98
2019-05-07T05:32:14.779Z,102061.50
2019-05-07T05:34:16.791Z,102058.68
2019-05-07T05:36:18.811Z,102056.52
2019-05-07T05:38:22.144Z,102056.20
2019-05-07T05:40:24.471Z,102056.20
2019-05-07T05:42:34.137Z,102056.17
2019-05-07T05:44:36.486Z,102058.02
2019-05-07T05:46:38.476Z,102052.58
2019-05-07T05:48:42.539Z,102054.22
2019-05-07T05:51:11.900Z,102056.12
2019-05-07T05:53:36.757Z,102056.80
2019-05-07T05:55:38.992Z,102056.35
2019-05-07T05:58:12.122Z,102059.25
2019-05-07T06:00:34.351Z,102051.59
2019-05-07T06:03:02.525Z,102057.78
2019-05-07T06:05:34.547Z,102056.05
2019-05-07T06:07:42.739Z,102056.93
2019-05-07T06:10:12.711Z,102054.94
2019-05-07T06:12:32.753Z,102051.86
2019-05-07T06:14:47.923Z,102054.17
2019-05-07T06:16:57.612Z,102050.72
2019-05-07T06:19:09.266Z,102048.34
2019-05-07T06:21:34.002Z,102048.26
2019-05-07T06:23:44.523Z,102053.54
2019-05-07T06:25:47.049Z,102049.26
2019-05-07T06:27:49.127Z,102049.59
2019-05-07T06:29:52.430Z,102045.62
2019-05-07T06:32:03.506Z,102047.09
2019-05-07T06:34:06.743Z,102046.09
2019-05-07T06:36:08.770Z,102046.35
2019-05-07T06:38:12.575Z,102040.59
2019-05-07T06:40:35.496Z,102044.28
2019-05-07T06:43:06.264Z,102045.88
2019-05-07T06:45:22.848Z,102045.75
2019-05-07T06:47:24.953Z,102049.92
2019-05-07T06:49:26.955Z,102045.59
2019-05-07T06:51:29.258Z,102043.86
2019-05-07T06:53:33.439Z,102040.55
2019-05-07T06:55:35.393Z,102039.89
2019-05-07T06:57:37.683Z,102040.80
2019-05-07T06:59:45.224Z,102048.20
2019-05-07T07:02:07.069Z,102045.09
2019-05-07T07:04:22.347Z,102048.19
2019-05-07T07:06:27.127Z,102042.33
2019-05-07T07:08:34.116Z,102046.47
2019-05-07T07:10:54.881Z,102043.76
2019-05-07T07:12:56.899Z,102043.69
2019-05-07T07:14:59.270Z,102044.72
2019-05-07T07:17:02.337Z,102046.09
2019-05-07T07:19:04.385Z,102041.04
2019-05-07T07:21:06.450Z,102037.63
2019-05-07T07:23:08.818Z,102038.39
2019-05-07T07:25:11.907Z,102037.37
2019-05-07T07:27:14.124Z,102036.02
2019-05-07T07:29:18.661Z,102039.91
2019-05-07T07:31:31.843Z,102036.45
2019-05-07T07:33:36.885Z,102035.89
2019-05-07T07:35:39.175Z,102033.25
2019-05-07T07:37:43.000Z,102035.45
2019-05-07T07:39:45.387Z,102033.63
2019-05-07T07:41:53.002Z,102033.94
2019-05-07T07:43:56.116Z,102031.08
2019-05-07T07:45:58.105Z,102027.62
2019-05-07T07:48:02.375Z,102028.88
2019-05-07T07:50:04.765Z,102024.70
2019-05-07T07:52:06.773Z,102020.48
2019-05-07T07:54:09.113Z,102020.54
2019-05-07T07:56:45.380Z,102023.78
2019-05-07T07:58:42.039Z,102021.67
2019-05-07T08:00:58.101Z,102020.59
2019-05-07T08:03:03.046Z,102004.35
2019-05-07T08:05:07.616Z,102007.17
2019-05-07T08:07:09.641Z,102006.44
2019-05-07T08:09:12.923Z,102006.91
2019-05-07T08:11:15.362Z,102003.59
2019-05-07T08:13:17.364Z,102003.28
2019-05-07T08:15:23.661Z,102002.89
2019-05-07T08:17:24.759Z,102001.22
2019-05-07T08:19:26.925Z,101999.45
2019-05-07T08:21:29.162Z,102004.05
2019-05-07T08:23:31.946Z,101990.24
2019-05-07T08:25:49.404Z,101992.86
2019-05-07T08:27:52.982Z,101991.84
2019-05-07T08:29:54.986Z,101989.48
2019-05-07T08:32:04.296Z,101980.82
2019-05-07T08:34:15.225Z,101980.92
2019-05-07T08:36:17.638Z,101985.12
2019-05-07T08:38:19.329Z,101975.95
2019-05-07T08:40:22.141Z,101971.31
2019-05-07T08:42:24.228Z,101976.25
2019-05-07T08:44:33.326Z,101974.47
2019-05-07T08:46:59.052Z,101974.55
2019-05-07T08:49:01.961Z,101967.13
2019-05-07T08:51:03.978Z,101962.49
2019-05-07T08:53:06.342Z,101967.70
2019-05-07T08:55:08.680Z,101950.72
2019-05-07T08:57:12.345Z,101956.98
2019-05-07T08:59:15.089Z,101955.93
2019-05-07T09:01:17.267Z,101960.19
2019-05-07T09:03:37.276Z,101961.01
2019-05-07T09:05:39.508Z,101956.59
2019-05-07T09:07:42.585Z,101959.98
2019-05-07T09:09:44.868Z,101949.56
2019-05-07T09:11:47.248Z,101957.42
2019-05-07T09:13:49.211Z,101947.50
2019-05-07T09:15:52.858Z,101947.64
2019-05-07T09:17:56.284Z,101952.91
2019-05-07T09:19:58.297Z,101955.13
2019-05-07T09:22:02.153Z,101950.91
2019-05-07T09:24:05.455Z,101953.24
2019-05-07T09:26:09.937Z,101948.48
2019-05-07T09:28:12.799Z,101939.90
2019-05-07T09:30:39.375Z,101942.70
2019-05-07T09:32:54.529Z,101941.39
2019-05-07T09:34:56.932Z,101940.73
2019-05-07T09:37:02.400Z,101935.98
2019-05-07T09:39:06.429Z,101938.73
2019-05-07T09:41:12.019Z,101932.20
2019-05-07T09:43:15.697Z,101934.75
2019-05-07T09:45:17.833Z,101931.91
2019-05-07T09:47:21.894Z,101927.07
2019-05-07T09:49:24.556Z,101924.22
2019-05-07T09:51:26.215Z,101929.16
2019-05-07T09:53:28.307Z,101926.98
2019-05-07T09:55:32.719Z,101923.06
2019-05-07T09:57:34.987Z,101922.69
2019-05-07T09:59:36.979Z,101918.67
2019-05-07T10:01:39.214Z,101918.27
2019-05-07T10:03:42.898Z,101910.86
2019-05-07T10:05:45.129Z,101911.66
2019-05-07T10:07:47.927Z,101904.16
2019-05-07T10:09:52.210Z,101908.98
2019-05-07T10:12:02.989Z,101908.89
2019-05-07T10:14:08.137Z,101903.40
2019-05-07T10:16:10.266Z,101905.15
2019-05-07T10:18:14.172Z,101905.41
2019-05-07T10:20:22.029Z,101902.28
2019-05-07T10:22:24.672Z,101896.84
2019-05-07T10:24:27.199Z,101904.83
2019-05-07T10:26:29.201Z,101897.73
2019-05-07T10:28:32.159Z,101890.75
2019-05-07T10:30:34.777Z,101885.25
2019-05-07T10:32:36.697Z,101892.91
2019-05-07T10:34:39.117Z,101889.02
2019-05-07T10:36:42.167Z,101885.83
2019-05-07T10:38:44.656Z,101881.50
2019-05-07T10:40:47.811Z,101881.36
2019-05-07T10:42:51.742Z,101883.09
2019-05-07T10:45:03.125Z,101885.67
2019-05-07T10:47:24.754Z,101883.05
2019-05-07T10:49:35.417Z,101872.37
2019-05-07T10:51:37.451Z,101875.22
2019-05-07T10:53:39.545Z,101873.78
2019-05-07T10:55:42.897Z,101867.97
2019-05-07T10:57:48.009Z,101872.78
2019-05-07T10:59:52.272Z,101871.27
2019-05-07T11:02:02.461Z,101864.97
2019-05-07T11:04:05.565Z,101869.08
2019-05-07T11:06:07.708Z,101872.84
2019-05-07T11:08:10.199Z,101865.14
2019-05-07T11:10:12.588Z,101859.11
2019-05-07T11:12:14.587Z,101865.21
2019-05-07T11:14:16.939Z,101860.90
2019-05-07T11:16:22.151Z,101868.18
2019-05-07T11:18:29.636Z,101864.31
2019-05-07T11:20:46.589Z,101857.16
2019-05-07T11:22:38.728Z,101861.38
2019-05-07T11:24:42.609Z,101853.72
2019-05-07T11:26:44.980Z,101852.58
2019-05-07T11:28:47.270Z,101850.16
2019-05-07T11:30:49.360Z,101854.20
2019-05-07T11:32:52.258Z,101841.71
2019-05-07T11:34:56.497Z,101838.41
2019-05-07T11:36:58.817Z,101833.66
2019-05-07T11:39:01.790Z,101832.84
2019-05-07T11:41:06.193Z,101833.53
2019-05-07T11:43:18.040Z,101821.77
2019-05-07T11:45:26.100Z,101822.95
2019-05-07T11:47:31.945Z,101831.65
2019-05-07T11:49:52.502Z,101820.53
2019-05-07T11:52:05.692Z,101825.77
2019-05-07T11:54:12.816Z,101831.33
2019-05-07T11:56:16.138Z,101818.31
2019-05-07T11:58:18.205Z,101819.32
2019-05-07T12:00:28.939Z,101814.74
2019-05-07T12:02:32.045Z,101809.23
2019-05-07T12:04:34.371Z,101811.80
2019-05-07T12:06:36.567Z,101805.71
2019-05-07T12:08:48.129Z,101809.63
2019-05-07T12:10:42.599Z,101810.30
2019-05-07T12:12:49.002Z,101804.74
2019-05-07T12:14:51.811Z,101807.44
2019-05-07T12:16:54.150Z,101804.45
2019-05-07T12:18:56.380Z,101802.63
2019-05-07T12:20:58.472Z,101799.32
2019-05-07T12:23:02.846Z,101802.19
2019-05-07T12:25:05.877Z,101794.53
2019-05-07T12:27:08.030Z,101796.44
2019-05-07T12:29:11.863Z,101802.13
2019-05-07T12:31:45.439Z,101806.52
2019-05-07T12:34:02.600Z,101799.78
2019-05-07T12:36:05.673Z,101796.19
2019-05-07T12:38:08.458Z,101805.88
2019-05-07T12:40:12.408Z,101797.02
2019-05-07T12:42:14.745Z,101805.19
2019-05-07T12:44:17.075Z,101789.58
2019-05-07T12:46:19.394Z,101789.58
2019-05-07T12:48:21.868Z,101789.59
2019-05-07T12:50:24.012Z,101791.80
2019-05-07T12:52:38.770Z,101796.63
2019-05-07T12:55:02.888Z,101785.58
2019-05-07T12:57:05.193Z,101786.82
2019-05-07T12:59:07.357Z,101789.16
2019-05-07T13:01:29.043Z,101792.82
2019-05-07T13:03:37.967Z,101793.20
2019-05-07T13:05:41.728Z,101796.86
2019-05-07T13:07:52.524Z,101791.09
2019-05-07T13:09:54.832Z,101790.00
2019-05-07T13:11:56.841Z,101793.58
2019-05-07T13:13:58.865Z,101788.61
2019-05-07T13:16:02.945Z,101784.30
2019-05-07T13:18:05.430Z,101784.50
2019-05-07T13:20:07.956Z,101782.16
2019-05-07T13:22:13.076Z,101777.25
2019-05-07T13:24:15.145Z,101772.74
2019-05-07T13:26:17.198Z,101773.29
2019-05-07T13:28:19.526Z,101767.39
2019-05-07T13:30:22.675Z,101762.66
2019-05-07T13:32:27.480Z,101760.22
2019-05-07T13:34:33.700Z,101756.16
2019-05-07T13:36:36.420Z,101744.81
2019-05-07T13:38:46.080Z,101741.17
2019-05-07T13:41:17.332Z,101743.33
2019-05-07T13:43:25.411Z,101745.10
2019-05-07T13:45:34.820Z,101736.73
2019-05-07T13:47:40.196Z,101736.53
2019-05-07T13:49:42.832Z,101726.05
2019-05-07T13:51:45.376Z,101727.81
2019-05-07T13:53:47.769Z,101722.70
2019-05-07T13:55:49.998Z,101724.70
2019-05-07T13:57:52.482Z,101727.91
2019-05-07T13:59:55.204Z,101736.19
2019-05-07T14:02:04.648Z,101719.67
2019-05-07T14:04:06.213Z,101717.83
2019-05-07T14:06:08.455Z,101720.42
2019-05-07T14:08:11.934Z,101716.02
2019-05-07T14:10:15.364Z,101714.82
2019-05-07T14:12:17.710Z,101714.77
2019-05-07T14:14:22.165Z,101712.91
2019-05-07T14:16:24.804Z,101702.80
2019-05-07T14:18:26.568Z,101708.48
2019-05-07T14:20:28.767Z,101699.98
2019-05-07T14:22:31.856Z,101706.69
2019-05-07T14:24:34.603Z,101704.77
2019-05-07T14:26:36.997Z,101702.75
2019-05-07T14:28:39.078Z,101695.58
2019-05-07T14:30:42.081Z,101689.52
2019-05-07T14:32:49.312Z,101697.45
2019-05-07T14:35:29.664Z,101686.45
2019-05-07T14:37:38.776Z,101685.30
2019-05-07T14:39:42.517Z,101680.56
2019-05-07T14:41:46.219Z,101679.25
2019-05-07T14:43:54.249Z,101677.70
2019-05-07T14:45:56.430Z,101678.61
2019-05-07T14:47:58.629Z,101678.22
2019-05-07T14:50:02.082Z,101677.66
2019-05-07T14:52:04.512Z,101672.42
2019-05-07T14:54:06.703Z,101667.81
2019-05-07T14:56:11.858Z,101666.88
2019-05-07T14:58:14.123Z,101659.42
2019-05-07T15:00:16.437Z,101649.99
2019-05-07T15:02:18.777Z,101647.46
2019-05-07T15:04:22.142Z,101646.64
2019-05-07T15:06:25.045Z,101646.52
2019-05-07T15:08:27.219Z,101638.59
2019-05-07T15:10:29.325Z,101640.58
2019-05-07T15:12:33.035Z,101635.10
2019-05-07T15:14:36.773Z,101631.39
2019-05-07T15:16:39.084Z,101635.48
2019-05-07T15:18:52.978Z,101625.47
2019-05-07T15:20:55.341Z,101628.78
2019-05-07T15:23:05.228Z,101625.59
2019-05-07T15:25:09.094Z,101622.63
2019-05-07T15:27:12.170Z,101616.87
2019-05-07T15:29:14.343Z,101621.77
2019-05-07T15:31:19.158Z,101613.55
2019-05-07T15:33:21.804Z,101614.84
2019-05-07T15:35:23.891Z,101612.34
2019-05-07T15:37:26.057Z,101606.56
2019-05-07T15:39:28.445Z,101604.88
2019-05-07T15:41:32.101Z,101601.86
2019-05-07T15:43:34.438Z,101604.87
2019-05-07T15:45:36.692Z,101599.54
2019-05-07T15:47:42.462Z,101597.55
2019-05-07T15:49:44.651Z,101599.05
2019-05-07T15:51:46.829Z,101591.84
2019-05-07T15:53:53.701Z,101588.75
2019-05-07T15:55:57.152Z,101590.84
2019-05-07T15:57:59.703Z,101585.52
2019-05-07T16:00:06.856Z,101583.28
2019-05-07T16:02:27.966Z,101577.76
2019-05-07T16:04:32.738Z,101586.44
2019-05-07T16:06:42.612Z,101581.44
2019-05-07T16:08:52.972Z,101580.74
2019-05-07T16:10:55.176Z,101576.34
2019-05-07T16:12:57.387Z,101575.42
2019-05-07T16:14:59.461Z,101570.06
2019-05-07T16:17:08.632Z,101565.90
2019-05-07T16:19:14.194Z,101564.51
2019-05-07T16:21:17.678Z,101560.11
2019-05-07T16:23:21.935Z,101558.95
2019-05-07T16:25:23.893Z,101556.19
2019-05-07T16:27:26.294Z,101563.59
2019-05-07T16:29:28.614Z,101550.48
2019-05-07T16:31:32.994Z,101547.58
2019-05-07T16:33:34.786Z,101541.11
2019-05-07T16:35:36.997Z,101547.08
2019-05-07T16:37:39.163Z,101543.34
2019-05-07T16:39:42.168Z,101541.84
2019-05-07T16:41:44.557Z,101541.64
2019-05-07T16:43:46.792Z,101535.30
2019-05-07T16:45:48.945Z,101534.48
2019-05-07T16:47:52.163Z,101536.58
2019-05-07T16:49:54.532Z,101530.30
2019-05-07T16:51:56.542Z,101534.87
2019-05-07T16:54:00.871Z,101529.84
2019-05-07T16:56:03.926Z,101522.77
2019-05-07T16:58:12.502Z,101529.37
2019-05-07T17:00:22.208Z,101524.98
2019-05-07T17:02:27.979Z,101524.66
2019-05-07T17:04:31.941Z,101534.00
2019-05-07T17:06:34.158Z,101528.73
2019-05-07T17:08:58.043Z,101523.09
2019-05-07T17:11:00.213Z,101530.62
2019-05-07T17:13:03.304Z,101520.98
2019-05-07T17:15:07.073Z,101522.41
2019-05-07T17:17:09.376Z,101517.75
2019-05-07T17:19:12.753Z,101518.14
2019-05-07T17:21:14.810Z,101522.14
2019-05-07T17:23:17.095Z,101518.52
2019-05-07T17:25:37.585Z,101512.86
2019-05-07T17:27:40.132Z,101518.52
2019-05-07T17:29:43.443Z,101509.00
2019-05-07T17:31:45.568Z,101511.98
2019-05-07T17:33:51.673Z,101502.45
2019-05-07T17:35:55.766Z,101501.30
2019-05-07T17:38:06.520Z,101504.42
2019-05-07T17:40:03.243Z,101497.61
2019-05-07T17:42:05.946Z,101497.44
2019-05-07T17:44:11.778Z,101496.58
2019-05-07T17:46:13.738Z,101493.58
2019-05-07T17:48:15.835Z,101484.45
2019-05-07T17:50:22.728Z,101488.38
2019-05-07T17:52:25.730Z,101484.20
2019-05-07T17:54:28.260Z,101489.06
2019-05-07T17:56:32.057Z,101490.80
2019-05-07T17:58:34.239Z,101486.98
2019-05-07T18:00:37.135Z,101484.56
2019-05-07T18:02:59.029Z,101479.70
2019-05-07T18:05:02.814Z,101478.83
2019-05-07T18:07:07.991Z,101474.63
2019-05-07T18:09:12.092Z,101478.89
2019-05-07T18:11:20.468Z,101474.09
2019-05-07T18:13:22.362Z,101472.77
2019-05-07T18:15:24.735Z,101469.19
2019-05-07T18:17:33.744Z,101471.37
2019-05-07T18:19:36.121Z,101468.89
2019-05-07T18:21:37.918Z,101464.37
2019-05-07T18:23:40.056Z,101463.92
2019-05-07T18:25:42.985Z,101463.66
2019-05-07T18:27:45.319Z,101466.80
2019-05-07T18:29:48.109Z,101466.20
2019-05-07T18:31:55.678Z,101465.09
2019-05-07T18:33:58.888Z,101458.61
2019-05-07T18:36:02.861Z,101463.77
2019-05-07T18:38:06.809Z,101463.55
2019-05-07T18:40:08.925Z,101458.67
2019-05-07T18:42:12.675Z,101463.87
2019-05-07T18:44:16.231Z,101451.36
2019-05-07T18:46:18.495Z,101458.72
2019-05-07T18:48:22.437Z,101458.72
2019-05-07T18:50:24.940Z,101454.91
2019-05-07T18:52:27.080Z,101456.40
2019-05-07T18:54:31.572Z,101456.23
2019-05-07T18:56:33.989Z,101456.09
2019-05-07T18:58:36.279Z,101460.48
2019-05-07T19:00:42.601Z,101460.39
2019-05-07T19:02:44.944Z,101457.14
2019-05-07T19:04:46.951Z,101456.36
2019-05-07T19:06:49.025Z,101454.63
2019-05-07T19:08:52.689Z,101452.17
2019-05-07T19:10:55.079Z,101456.45
2019-05-07T19:12:58.358Z,101455.20
2019-05-07T19:15:02.885Z,101454.02
2019-05-07T19:17:05.250Z,101456.30
2019-05-07T19:19:07.438Z,101452.16
2019-05-07T19:21:09.552Z,101448.50
2019-05-07T19:23:11.680Z,101444.21
2019-05-07T19:25:13.910Z,101450.79
2019-05-07T19:27:16.342Z,101449.33
2019-05-07T19:29:18.058Z,101450.66
2019-05-07T19:31:21.995Z,101445.72
2019-05-07T19:33:27.135Z,101453.35
2019-05-07T19:35:28.942Z,101447.91
2019-05-07T19:37:31.909Z,101446.95
2019-05-07T19:39:34.442Z,101442.39
2019-05-07T19:41:36.501Z,101447.77
2019-05-07T19:43:38.720Z,101447.87
2019-05-07T19:45:41.852Z,101439.39
2019-05-07T19:47:44.125Z,101434.91
2019-05-07T19:49:46.327Z,101425.41
2019-05-07T19:51:48.657Z,101424.61
2019-05-07T19:53:52.575Z,101417.70
2019-05-07T19:56:16.538Z,101412.02
2019-05-07T19:58:19.202Z,101412.41
2019-05-07T20:00:23.097Z,101406.50
2019-05-07T20:02:29.594Z,101415.46
2019-05-07T20:04:32.273Z,101412.28
2019-05-07T20:06:34.336Z,101405.12
2019-05-07T20:08:36.953Z,101401.80
2019-05-07T20:10:46.591Z,101405.76
2019-05-07T20:12:48.815Z,101400.66
2019-05-07T20:14:51.712Z,101405.52
2019-05-07T20:16:54.267Z,101402.13
2019-05-07T20:18:56.952Z,101400.17
2019-05-07T20:20:59.614Z,101401.70
2019-05-07T20:23:02.538Z,101399.45
2019-05-07T20:25:18.553Z,101400.17
2019-05-07T20:27:12.597Z,101399.94
2019-05-07T20:29:15.281Z,101396.69
2019-05-07T20:31:17.665Z,101391.73
2019-05-07T20:33:21.956Z,101395.39
2019-05-07T20:35:25.564Z,101398.55
2019-05-07T20:37:27.735Z,101397.73
2019-05-07T20:39:32.110Z,101394.97
2019-05-07T20:41:34.675Z,101392.95
2019-05-07T20:43:37.078Z,101392.39
2019-05-07T20:45:42.661Z,101389.87
2019-05-07T20:47:45.099Z,101385.39
2019-05-07T20:49:47.168Z,101380.20
2019-05-07T20:51:49.291Z,101376.05
2019-05-07T20:54:10.002Z,101377.28
2019-05-07T20:56:12.963Z,101373.28
2019-05-07T20:58:15.142Z,101366.56
2019-05-07T21:00:23.836Z,101361.12
2019-05-07T21:02:25.962Z,101360.55
2019-05-07T21:04:28.242Z,101358.02
2019-05-07T21:06:32.283Z,101351.13
2019-05-07T21:08:34.343Z,101349.17
2019-05-07T21:10:36.420Z,101354.54
2019-05-07T21:12:38.691Z,101355.84
2019-05-07T21:14:41.779Z,101352.73
2019-05-07T21:16:43.986Z,101346.25
2019-05-07T21:18:46.022Z,101348.83
2019-05-07T21:20:48.280Z,101338.30
2019-05-07T21:22:51.890Z,101332.27
2019-05-07T21:24:53.986Z,101327.41
2019-05-07T21:26:56.483Z,101320.50
2019-05-07T21:28:58.532Z,101318.16
2019-05-07T21:31:02.601Z,101313.94
2019-05-07T21:33:04.899Z,101307.12
2019-05-07T21:35:06.591Z,101305.73
2019-05-07T21:37:08.767Z,101308.73
2019-05-07T21:39:12.991Z,101298.59
2019-05-07T21:41:15.008Z,101302.73
2019-05-07T21:43:17.143Z,101302.98
2019-05-07T21:45:23.645Z,101296.22
2019-05-07T21:47:23.801Z,101295.89
2019-05-07T21:49:25.923Z,101298.41
2019-05-07T21:52:13.995Z,101292.17
2019-05-07T21:54:28.179Z,101289.50
2019-05-07T21:56:38.315Z,101287.07
2019-05-07T21:58:44.323Z,101281.61
2019-05-07T22:01:07.703Z,101272.37
2019-05-07T22:03:14.159Z,101268.56
2019-05-07T22:05:17.365Z,101274.31
2019-05-07T22:07:19.425Z,101269.69
2019-05-07T22:09:22.311Z,101260.52
2019-05-07T22:11:24.787Z,101261.49
2019-05-07T22:13:28.371Z,101256.63
2019-05-07T22:15:31.918Z,101251.73
2019-05-07T22:17:34.348Z,101253.11
2019-05-07T22:19:36.397Z,101246.63
2019-05-07T22:21:38.443Z,101243.30
2019-05-07T22:23:42.714Z,101236.48
2019-05-07T22:25:44.976Z,101231.84
2019-05-07T22:27:46.897Z,101229.98
2019-05-07T22:29:49.591Z,101226.50
2019-05-07T22:32:11.881Z,101216.61
2019-05-07T22:34:33.723Z,101215.61
2019-05-07T22:36:37.857Z,101218.17
2019-05-07T22:38:58.963Z,101209.99
2019-05-07T22:41:03.069Z,101215.81
2019-05-07T22:43:05.753Z,101207.21
2019-05-07T22:45:08.407Z,101207.38
2019-05-07T22:47:19.380Z,101200.23
2019-05-07T22:49:23.032Z,101200.56
2019-05-07T22:51:25.369Z,101201.86
2019-05-07T22:53:27.392Z,101194.80
2019-05-07T22:55:29.897Z,101192.13
2019-05-07T22:57:38.353Z,101184.52
2019-05-07T22:59:40.356Z,101179.00
2019-05-07T23:01:42.729Z,101175.77
2019-05-07T23:03:44.741Z,101173.48
2019-05-07T23:05:46.803Z,101174.38
2019-05-07T23:07:49.218Z,101176.63
2019-05-07T23:09:52.235Z,101183.27
2019-05-07T23:11:54.990Z,101177.70
2019-05-07T23:13:56.936Z,101171.63
2019-05-07T23:15:59.023Z,101167.14
2019-05-07T23:18:04.151Z,101169.19
2019-05-07T23:20:05.587Z,101168.93
2019-05-07T23:22:08.570Z,101164.23
2019-05-07T23:24:10.628Z,101161.55
2019-05-07T23:26:14.727Z,101162.11
2019-05-07T23:28:17.105Z,101160.01
2019-05-07T23:30:22.245Z,101153.53
2019-05-07T23:32:24.517Z,101159.11
2019-05-07T23:34:26.506Z,101156.77
2019-05-07T23:36:28.667Z,101149.39
2019-05-07T23:38:31.926Z,101152.23
2019-05-07T23:41:27.399Z,101147.20
2019-05-07T23:43:28.833Z,101152.33
2019-05-07T23:45:42.818Z,101143.95
2019-05-07T23:50:19.770Z,101136.03
2019-05-07T23:52:22.563Z,101132.52
2019-05-07T23:54:24.687Z,101132.80